createdAt,value
2023-05-02T00:01:16.114Z,97590.78
2023-05-02T00:03:45.024Z,97587.28
2023-05-02T00:06:13.473Z,97578.41
2023-05-02T00:08:44.838Z,97580.28
2023-05-02T00:11:16.042Z,97585.97
2023-05-02T00:13:45.733Z,97578.78
2023-05-02T00:16:14.030Z,97582.47
2023-05-02T00:18:44.760Z,97587.81
2023-05-02T00:21:13.667Z,97586.16
2023-05-02T00:23:42.228Z,97589.84
2023-05-02T00:26:10.921Z,97589.00
2023-05-02T00:28:40.292Z,97590.81
2023-05-02T00:31:13.241Z,97592.69
2023-05-02T00:33:41.505Z,97588.16
2023-05-02T00:36:15.768Z,97589.34
2023-05-02T00:38:44.234Z,97586.66
2023-05-02T00:41:12.715Z,97597.16
2023-05-02T00:43:41.131Z,97588.50
2023-05-02T00:46:13.194Z,97584.34
2023-05-02T00:48:41.744Z,97589.69
2023-05-02T00:51:16.196Z,97590.22
2023-05-02T00:53:44.720Z,97591.22
2023-05-02T00:56:13.077Z,97595.22
2023-05-02T00:58:42.273Z,97592.09
2023-05-02T01:01:31.517Z,97610.44
2023-05-02T01:04:16.295Z,97601.91
2023-05-02T01:06:57.985Z,97602.44
2023-05-02T01:09:39.364Z,97607.13
2023-05-02T01:12:17.638Z,97614.63
2023-05-02T01:14:52.537Z,97611.47
2023-05-02T01:17:32.702Z,97607.50
2023-05-02T01:20:10.257Z,97613.34
2023-05-02T01:22:41.146Z,97606.19
2023-05-02T01:25:22.301Z,97603.88
2023-05-02T01:27:59.381Z,97613.84
2023-05-02T01:30:36.024Z,97609.03
2023-05-02T01:33:05.949Z,97616.88
2023-05-02T01:35:36.649Z,97623.22
2023-05-02T01:38:07.461Z,97619.72
2023-05-02T01:40:38.403Z,97616.41
2023-05-02T01:43:08.624Z,97620.03
2023-05-02T01:45:40.419Z,97622.88
2023-05-02T01:48:10.579Z,97620.38
2023-05-02T01:50:40.652Z,97624.06
2023-05-02T01:53:13.857Z,97625.06
2023-05-02T01:55:46.055Z,97629.56
2023-05-02T01:58:16.309Z,97627.91
2023-05-02T02:00:49.852Z,97628.09
2023-05-02T02:03:20.348Z,97634.22
2023-05-02T02:05:50.929Z,97634.41
2023-05-02T02:08:19.322Z,97636.25
2023-05-02T02:10:55.239Z,97627.59
2023-05-02T02:13:31.890Z,97628.44
2023-05-02T02:16:05.691Z,97633.75
2023-05-02T02:18:38.466Z,97625.75
2023-05-02T02:21:10.761Z,97634.72
2023-05-02T02:23:43.459Z,97631.25
2023-05-02T02:26:13.751Z,97639.59
2023-05-02T02:28:42.912Z,97649.59
2023-05-02T02:31:12.699Z,97641.91
2023-05-02T02:33:42.064Z,97651.91
2023-05-02T02:36:26.896Z,97646.09
2023-05-02T02:39:06.290Z,97650.28
2023-05-02T02:41:42.631Z,97653.13
2023-05-02T02:44:26.370Z,97657.09
2023-05-02T02:47:09.100Z,97648.63
2023-05-02T02:49:49.772Z,97657.13
2023-05-02T02:52:26.690Z,97661.09
2023-05-02T02:55:08.115Z,97655.28
2023-05-02T02:57:44.398Z,97655.44
2023-05-02T03:00:18.746Z,97650.28
2023-05-02T03:02:49.754Z,97648.78
2023-05-02T03:05:21.827Z,97651.59
2023-05-02T03:07:50.403Z,97649.09
2023-05-02T03:10:18.749Z,97651.28
2023-05-02T03:12:47.631Z,97655.06
2023-05-02T03:15:51.667Z,97662.91
2023-05-02T03:18:24.485Z,97667.53
2023-05-02T03:20:52.820Z,97671.38
2023-05-02T03:23:21.245Z,97665.53
2023-05-02T03:25:49.543Z,97672.88
2023-05-02T03:28:20.850Z,97676.69
2023-05-02T03:30:49.159Z,97674.34
2023-05-02T03:33:17.516Z,97680.00
2023-05-02T03:35:47.218Z,97677.66
2023-05-02T03:38:15.564Z,97675.31
2023-05-02T03:40:43.911Z,97690.66
2023-05-02T03:43:12.630Z,97684.81
2023-05-02T03:45:43.632Z,97680.50
2023-05-02T03:48:12.524Z,97684.28
2023-05-02T03:50:40.906Z,97689.78
2023-05-02T03:53:13.516Z,97684.78
2023-05-02T03:55:42.400Z,97693.94
2023-05-02T03:58:12.326Z,97696.06
2023-05-02T04:00:44.478Z,97703.41
2023-05-02T04:03:12.838Z,97699.25
2023-05-02T04:05:41.250Z,97706.69
2023-05-02T04:08:11.221Z,97713.84
2023-05-02T04:10:42.297Z,97714.31
2023-05-02T04:13:10.644Z,97714.63
2023-05-02T04:15:39.267Z,97724.63
2023-05-02T04:18:07.808Z,97721.44
2023-05-02T04:20:41.984Z,97715.44
2023-05-02T04:23:11.720Z,97717.44
2023-05-02T04:25:40.044Z,97727.25
2023-05-02T04:28:10.555Z,97726.41
2023-05-02T04:30:41.644Z,97732.88
2023-05-02T04:33:10.040Z,97737.34
2023-05-02T04:35:41.305Z,97737.50
2023-05-02T04:38:10.989Z,97736.84
2023-05-02T04:40:42.099Z,97742.34
2023-05-02T04:43:10.544Z,97743.16
2023-05-02T04:45:38.912Z,97742.34
2023-05-02T04:48:07.592Z,97740.66
2023-05-02T04:50:38.895Z,97746.81
2023-05-02T04:53:07.320Z,97738.81
2023-05-02T04:55:37.030Z,97745.00
2023-05-02T04:58:05.592Z,97750.31
2023-05-02T05:00:36.550Z,97756.28
2023-05-02T05:03:06.582Z,97762.44
2023-05-02T05:05:35.727Z,97762.28
2023-05-02T05:08:04.222Z,97768.31
2023-05-02T05:10:32.600Z,97775.13
2023-05-02T05:13:02.333Z,97765.00
2023-05-02T05:15:30.618Z,97766.34
2023-05-02T05:17:59.098Z,97777.53
2023-05-02T05:20:30.219Z,97775.34
2023-05-02T05:22:58.533Z,97783.72
2023-05-02T05:25:27.733Z,97782.56
2023-05-02T05:27:56.374Z,97792.72
2023-05-02T05:30:26.286Z,97795.06
2023-05-02T05:32:58.194Z,97791.06
2023-05-02T05:35:27.627Z,97794.09
2023-05-02T05:37:55.957Z,97794.63
2023-05-02T05:40:24.335Z,97796.97
2023-05-02T05:42:52.597Z,97807.16
2023-05-02T05:45:20.951Z,97809.31
2023-05-02T05:47:51.395Z,97810.97
2023-05-02T05:50:19.786Z,97815.16
2023-05-02T05:52:48.069Z,97807.69
2023-05-02T05:55:16.591Z,97810.88
2023-05-02T05:57:44.901Z,97809.69
2023-05-02T06:00:15.051Z,97816.34
2023-05-02T06:02:43.449Z,97815.34
2023-05-02T06:05:13.284Z,97817.03
2023-05-02T06:07:41.753Z,97821.03
2023-05-02T06:10:11.280Z,97819.22
2023-05-02T06:12:39.635Z,97826.59
2023-05-02T06:15:09.012Z,97827.94
2023-05-02T06:17:37.419Z,97834.59
2023-05-02T06:20:06.737Z,97838.63
2023-05-02T06:22:36.422Z,97840.13
2023-05-02T06:25:06.054Z,97848.63
2023-05-02T06:27:34.380Z,97839.31
2023-05-02T06:30:02.925Z,97840.00
2023-05-02T06:32:32.511Z,97842.00
2023-05-02T06:35:00.908Z,97842.16
2023-05-02T06:37:29.319Z,97846.84
2023-05-02T06:39:59.204Z,97850.50
2023-05-02T06:42:27.599Z,97838.53
2023-05-02T06:44:55.898Z,97848.72
2023-05-02T06:47:24.658Z,97847.19
2023-05-02T06:49:53.780Z,97852.88
2023-05-02T06:52:22.092Z,97856.72
2023-05-02T06:54:53.051Z,97862.38
2023-05-02T06:57:22.923Z,97867.22
2023-05-02T06:59:51.273Z,97861.19
2023-05-02T07:02:19.562Z,97872.09
2023-05-02T07:04:47.953Z,97877.59
2023-05-02T07:07:18.837Z,97883.09
2023-05-02T07:09:47.422Z,97891.41
2023-05-02T07:12:15.741Z,97886.75
2023-05-02T07:14:46.966Z,97891.44
2023-05-02T07:17:15.822Z,97887.25
2023-05-02T07:19:45.497Z,97898.59
2023-05-02T07:22:14.129Z,97896.25
2023-05-02T07:24:43.416Z,97898.56
2023-05-02T07:27:12.634Z,97907.25
2023-05-02T07:29:42.464Z,97904.44
2023-05-02T07:32:12.244Z,97901.41
2023-05-02T07:34:40.598Z,97894.91
2023-05-02T07:37:08.950Z,97904.44
2023-05-02T07:39:37.296Z,97901.59
2023-05-02T07:42:06.592Z,97899.56
2023-05-02T07:44:35.107Z,97903.06
2023-05-02T07:47:03.512Z,97911.94
2023-05-02T07:49:33.164Z,97905.56
2023-05-02T07:52:01.494Z,97902.72
2023-05-02T07:54:29.947Z,97901.56
2023-05-02T07:57:02.364Z,97900.41
2023-05-02T07:59:32.171Z,97902.22
2023-05-02T08:02:00.646Z,97908.88
2023-05-02T08:04:29.264Z,97912.41
2023-05-02T08:06:59.103Z,97911.03
2023-05-02T08:09:27.699Z,97915.25
2023-05-02T08:11:55.980Z,97910.53
2023-05-02T08:14:24.324Z,97924.41
2023-05-02T08:16:52.725Z,97920.53
2023-05-02T08:19:21.089Z,97921.22
2023-05-02T08:21:49.577Z,97923.72
2023-05-02T08:24:21.833Z,97912.69
2023-05-02T08:26:50.886Z,97927.38
2023-05-02T08:29:19.374Z,97926.00
2023-05-02T08:31:47.721Z,97927.69
2023-05-02T08:34:16.458Z,97933.38
2023-05-02T08:36:44.877Z,97931.72
2023-05-02T08:39:13.157Z,97926.81
2023-05-02T08:41:42.850Z,97926.66
2023-05-02T08:44:11.338Z,97928.63
2023-05-02T08:46:43.217Z,97929.13
2023-05-02T08:49:13.023Z,97928.63
2023-05-02T08:51:42.602Z,97937.78
2023-05-02T08:54:11.550Z,97933.56
2023-05-02T08:56:40.177Z,97934.91
2023-05-02T08:59:09.914Z,97941.41
2023-05-02T09:01:40.376Z,97944.72
2023-05-02T09:04:08.972Z,97937.19
2023-05-02T09:06:38.221Z,97941.19
2023-05-02T09:09:06.857Z,97947.00
2023-05-02T09:11:35.158Z,97945.66
2023-05-02T09:14:05.027Z,97946.13
2023-05-02T09:16:40.836Z,97946.97
2023-05-02T09:19:09.209Z,97955.09
2023-05-02T09:21:40.068Z,97947.56
2023-05-02T09:24:18.300Z,97958.78
2023-05-02T09:26:59.715Z,97956.72
2023-05-02T09:29:30.730Z,97960.59
2023-05-02T09:32:00.579Z,97953.88
2023-05-02T09:34:28.992Z,97952.03
2023-05-02T09:36:58.221Z,97963.22
2023-05-02T09:39:29.121Z,97962.84
2023-05-02T09:41:58.442Z,97967.50
2023-05-02T09:44:29.086Z,97958.31
2023-05-02T09:47:02.019Z,97964.28
2023-05-02T09:49:42.518Z,97967.47
2023-05-02T09:52:15.227Z,97965.28
2023-05-02T09:54:43.891Z,97974.13
2023-05-02T09:57:12.278Z,97974.25
2023-05-02T09:59:41.543Z,97979.69
2023-05-02T10:02:13.440Z,97975.00
2023-05-02T10:04:43.106Z,97976.31
2023-05-02T10:07:13.804Z,97973.75
2023-05-02T10:09:45.979Z,97974.06
2023-05-02T10:12:17.136Z,97985.22
2023-05-02T10:14:52.022Z,97980.53
2023-05-02T10:17:37.031Z,97985.19
2023-05-02T10:20:07.483Z,97977.63
2023-05-02T10:22:36.799Z,97984.09
2023-05-02T10:25:09.104Z,97982.38
2023-05-02T10:27:37.884Z,97981.00
2023-05-02T10:30:09.003Z,97983.13
2023-05-02T10:32:40.109Z,97979.53
2023-05-02T10:35:09.496Z,97974.28
2023-05-02T10:37:39.839Z,97973.56
2023-05-02T10:40:12.334Z,97969.13
2023-05-02T10:42:45.631Z,97971.91
2023-05-02T10:45:30.902Z,97967.47
2023-05-02T10:48:19.291Z,97965.69
2023-05-02T10:50:52.069Z,97969.56
2023-05-02T10:53:34.378Z,97970.50
2023-05-02T10:56:21.933Z,97967.94
2023-05-02T10:58:52.543Z,97961.81
2023-05-02T11:01:38.166Z,97967.28
2023-05-02T11:04:09.462Z,97961.16
2023-05-02T11:06:39.929Z,97958.53
2023-05-02T11:09:35.650Z,97962.34
2023-05-02T11:12:08.646Z,97955.56
2023-05-02T11:14:51.058Z,97960.16
2023-05-02T11:17:21.121Z,97956.91
2023-05-02T11:20:27.156Z,97960.44
2023-05-02T11:22:58.905Z,97959.97
2023-05-02T11:25:39.286Z,97970.25
2023-05-02T11:28:48.360Z,97969.16
2023-05-02T11:31:56.093Z,97968.09
2023-05-02T11:34:24.556Z,97961.41
2023-05-02T11:36:54.303Z,97956.59
2023-05-02T11:39:23.610Z,97961.34
2023-05-02T11:41:52.184Z,97965.88
2023-05-02T11:44:20.618Z,97958.19
2023-05-02T11:46:49.050Z,97954.84
2023-05-02T11:49:17.378Z,97959.41
2023-05-02T11:51:45.801Z,97951.56
2023-05-02T11:54:21.411Z,97962.91
2023-05-02T11:56:49.909Z,97956.53
2023-05-02T11:59:18.238Z,97960.88
2023-05-02T12:01:50.656Z,97957.34
2023-05-02T12:04:22.051Z,97948.13
2023-05-02T12:06:57.338Z,97953.72
2023-05-02T12:09:27.098Z,97958.53
2023-05-02T12:11:56.023Z,97956.13
2023-05-02T12:14:35.623Z,97952.88
2023-05-02T12:17:07.658Z,97956.63
2023-05-02T12:19:37.986Z,97955.88
2023-05-02T12:22:07.914Z,97954.28
2023-05-02T12:24:37.965Z,97953.13
2023-05-02T12:27:19.894Z,97959.16
2023-05-02T12:29:49.804Z,97960.25
2023-05-02T12:32:30.233Z,97949.97
2023-05-02T12:35:03.765Z,97945.69
2023-05-02T12:37:32.168Z,97954.47
2023-05-02T12:40:02.321Z,97948.72
2023-05-02T12:42:34.493Z,97944.22
2023-05-02T12:45:17.736Z,97949.63
2023-05-02T12:47:49.360Z,97945.75
2023-05-02T12:50:17.874Z,97949.31
2023-05-02T12:52:51.373Z,97940.66
2023-05-02T12:55:24.344Z,97942.38
2023-05-02T12:58:01.479Z,97937.06
2023-05-02T13:00:30.034Z,97948.69
2023-05-02T13:02:58.499Z,97946.22
2023-05-02T13:05:27.065Z,97951.41
2023-05-02T13:07:56.627Z,97940.06
2023-05-02T13:10:26.874Z,97942.81
2023-05-02T13:12:55.854Z,97941.00
2023-05-02T13:15:24.440Z,97943.94
2023-05-02T13:17:53.601Z,97945.00
2023-05-02T13:20:22.165Z,97942.50
2023-05-02T13:22:50.467Z,97942.75
2023-05-02T13:25:18.799Z,97948.97
2023-05-02T13:27:48.502Z,97945.44
2023-05-02T13:30:16.787Z,97948.13
2023-05-02T13:32:45.364Z,97944.41
2023-05-02T13:35:14.109Z,97949.78
2023-05-02T13:37:42.553Z,97949.78
2023-05-02T13:40:11.792Z,97951.88
2023-05-02T13:42:40.062Z,97948.09
2023-05-02T13:45:11.242Z,97949.91
2023-05-02T13:47:41.340Z,97946.75
2023-05-02T13:50:10.615Z,97950.63
2023-05-02T13:52:39.232Z,97950.78
2023-05-02T13:55:08.694Z,97959.84
2023-05-02T13:57:37.039Z,97951.47
2023-05-02T14:00:08.340Z,97953.91
2023-05-02T14:02:38.288Z,97960.91
2023-05-02T14:05:07.975Z,97955.06
2023-05-02T14:07:36.308Z,97959.00
2023-05-02T14:10:07.846Z,97955.47
2023-05-02T14:12:36.183Z,97960.38
2023-05-02T14:15:04.844Z,97960.78
2023-05-02T14:17:33.218Z,97961.31
2023-05-02T14:20:07.988Z,97956.72
2023-05-02T14:22:36.362Z,97959.66
2023-05-02T14:25:05.541Z,97951.19
2023-05-02T14:27:33.817Z,97956.94
2023-05-02T14:30:02.366Z,97952.94
2023-05-02T14:32:31.036Z,97963.44
2023-05-02T14:34:59.392Z,97964.03
2023-05-02T14:37:29.066Z,97970.41
2023-05-02T14:40:05.476Z,97964.78
2023-05-02T14:42:33.830Z,97966.00
2023-05-02T14:45:02.742Z,97959.78
2023-05-02T14:47:31.533Z,97969.69
2023-05-02T14:50:00.287Z,97969.88
2023-05-02T14:52:30.224Z,97973.31
2023-05-02T14:55:02.900Z,97973.06
2023-05-02T14:57:31.383Z,97966.16
2023-05-02T14:59:59.830Z,97975.13
2023-05-02T15:02:28.647Z,97970.06
2023-05-02T15:04:58.718Z,97982.75
2023-05-02T15:07:27.754Z,97980.59
2023-05-02T15:09:57.663Z,97988.34
2023-05-02T15:12:26.394Z,97980.03
2023-05-02T15:14:54.742Z,97985.13
2023-05-02T15:17:23.075Z,97980.78
2023-05-02T15:19:51.403Z,97984.84
2023-05-02T15:22:19.691Z,97981.91
2023-05-02T15:24:48.074Z,97980.56
2023-05-02T15:27:17.730Z,97988.00
2023-05-02T15:29:48.666Z,97976.41
2023-05-02T15:32:16.976Z,97980.13
2023-05-02T15:34:46.211Z,97979.66
2023-05-02T15:37:14.574Z,97985.03
2023-05-02T15:39:42.867Z,97984.56
2023-05-02T15:42:11.519Z,97984.75
2023-05-02T15:44:41.233Z,97979.94
2023-05-02T15:47:09.621Z,97984.81
2023-05-02T15:49:38.413Z,97984.91
2023-05-02T15:52:12.442Z,97984.50
2023-05-02T15:54:40.754Z,97987.25
2023-05-02T15:57:09.147Z,97988.78
2023-05-02T15:59:37.395Z,97991.19
2023-05-02T16:02:07.414Z,97988.22
2023-05-02T16:04:35.893Z,97982.56
2023-05-02T16:07:04.447Z,97977.72
2023-05-02T16:09:32.784Z,97977.09
2023-05-02T16:12:01.528Z,97979.97
2023-05-02T16:14:30.047Z,97983.97
2023-05-02T16:17:01.199Z,97980.66
2023-05-02T16:19:31.002Z,97980.53
2023-05-02T16:21:59.360Z,97981.75
2023-05-02T16:24:27.670Z,97987.09
2023-05-02T16:26:56.082Z,97995.13
2023-05-02T16:29:24.414Z,97995.13
2023-05-02T16:31:52.936Z,97996.13
2023-05-02T16:34:21.330Z,97999.66
2023-05-02T16:36:51.523Z,98000.50
2023-05-02T16:39:20.427Z,97997.63
2023-05-02T16:41:49.381Z,98008.16
2023-05-02T16:44:17.780Z,98005.50
2023-05-02T16:46:47.506Z,98026.91
2023-05-02T16:49:16.232Z,98024.06
2023-05-02T16:51:44.823Z,98023.88
2023-05-02T16:54:14.543Z,98039.09
2023-05-02T16:56:43.178Z,98043.16
2023-05-02T16:59:11.546Z,98049.50
2023-05-02T17:01:40.302Z,98054.41
2023-05-02T17:04:08.781Z,98063.41
2023-05-02T17:06:37.187Z,98056.75
2023-05-02T17:09:08.781Z,98065.81
2023-05-02T17:11:38.608Z,98062.47
2023-05-02T17:14:08.048Z,98072.53
2023-05-02T17:16:40.936Z,98061.34
2023-05-02T17:19:09.549Z,98068.06
2023-05-02T17:21:38.162Z,98069.22
2023-05-02T17:24:07.520Z,98083.31
2023-05-02T17:26:37.281Z,98085.00
2023-05-02T17:29:05.601Z,98087.22
2023-05-02T17:31:34.039Z,98097.25
2023-05-02T17:34:02.410Z,98092.22
2023-05-02T17:36:32.486Z,98092.75
2023-05-02T17:39:01.116Z,98092.63
2023-05-02T17:41:29.443Z,98103.00
2023-05-02T17:43:59.293Z,98112.53
2023-05-02T17:46:27.676Z,98116.06
2023-05-02T17:48:56.078Z,98122.72
2023-05-02T17:51:24.525Z,98127.78
2023-05-02T17:53:52.914Z,98134.63
2023-05-02T17:56:21.400Z,98136.13
2023-05-02T17:58:49.837Z,98133.16
2023-05-02T18:01:19.836Z,98143.50
2023-05-02T18:03:48.504Z,98146.50
2023-05-02T18:06:17.679Z,98143.16
2023-05-02T18:08:46.445Z,98143.31
2023-05-02T18:11:19.300Z,98141.66
2023-05-02T18:13:49.518Z,98148.19
2023-05-02T18:16:19.803Z,98144.66
2023-05-02T18:18:48.429Z,98151.19
2023-05-02T18:21:22.659Z,98149.66
2023-05-02T18:23:51.060Z,98149.84
2023-05-02T18:26:19.531Z,98149.84
2023-05-02T18:28:53.100Z,98150.00
2023-05-02T18:31:23.922Z,98153.84
2023-05-02T18:33:54.360Z,98162.84
2023-05-02T18:36:27.230Z,98164.84
2023-05-02T18:38:55.938Z,98160.66
2023-05-02T18:41:24.400Z,98168.00
2023-05-02T18:43:53.113Z,98179.88
2023-05-02T18:46:23.115Z,98194.19
2023-05-02T18:48:51.599Z,98198.03
2023-05-02T18:51:20.072Z,98199.06
2023-05-02T18:53:51.539Z,98205.56
2023-05-02T18:56:20.074Z,98203.56
2023-05-02T18:58:49.130Z,98205.03
2023-05-02T19:01:20.225Z,98218.53
2023-05-02T19:03:50.369Z,98219.53
2023-05-02T19:06:18.957Z,98219.72
2023-05-02T19:08:48.216Z,98217.19
2023-05-02T19:11:16.785Z,98227.03
2023-05-02T19:13:45.355Z,98228.91
2023-05-02T19:16:15.623Z,98227.03
2023-05-02T19:18:44.565Z,98230.72
2023-05-02T19:21:15.806Z,98229.22
2023-05-02T19:23:45.042Z,98240.72
2023-05-02T19:26:14.437Z,98243.38
2023-05-02T19:28:43.299Z,98245.06
2023-05-02T19:31:11.991Z,98249.91
2023-05-02T19:33:41.637Z,98251.72
2023-05-02T19:36:10.322Z,98242.03
2023-05-02T19:38:41.673Z,98245.72
2023-05-02T19:41:10.385Z,98244.19
2023-05-02T19:43:38.858Z,98244.19
2023-05-02T19:46:07.241Z,98258.72
2023-05-02T19:48:35.715Z,98262.53
2023-05-02T19:51:04.856Z,98264.53
2023-05-02T19:53:34.188Z,98261.16
2023-05-02T19:56:06.870Z,98264.84
2023-05-02T19:58:35.523Z,98263.84
2023-05-02T20:01:04.270Z,98265.84
2023-05-02T20:03:34.293Z,98268.69
2023-05-02T20:06:02.996Z,98270.81
2023-05-02T20:08:31.592Z,98263.97
2023-05-02T20:11:00.001Z,98263.28
2023-05-02T20:13:29.727Z,98269.63
2023-05-02T20:15:58.022Z,98263.59
2023-05-02T20:18:26.390Z,98261.94
2023-05-02T20:20:55.063Z,98265.63
2023-05-02T20:23:23.362Z,98263.09
2023-05-02T20:25:51.645Z,98266.91
2023-05-02T20:28:19.948Z,98276.09
2023-05-02T20:30:49.656Z,98273.72
2023-05-02T20:33:18.342Z,98273.03
2023-05-02T20:35:46.743Z,98271.53
2023-05-02T20:38:17.740Z,98263.84
2023-05-02T20:40:46.108Z,98270.34
2023-05-02T20:43:14.567Z,98269.94
2023-05-02T20:45:42.957Z,98269.25
2023-05-02T20:48:12.730Z,98278.56
2023-05-02T20:50:43.002Z,98272.53
2023-05-02T20:53:11.263Z,98269.19
2023-05-02T20:55:39.494Z,98273.84
2023-05-02T20:58:07.832Z,98266.47
2023-05-02T21:00:46.764Z,98279.81
2023-05-02T21:03:16.559Z,98277.59
2023-05-02T21:05:44.889Z,98274.44
2023-05-02T21:08:13.557Z,98272.38
2023-05-02T21:10:41.888Z,98278.19
2023-05-02T21:13:10.191Z,98275.97
2023-05-02T21:15:38.597Z,98278.09
2023-05-02T21:18:07.933Z,98273.38
2023-05-02T21:20:41.510Z,98273.00
2023-05-02T21:23:11.248Z,98274.16
2023-05-02T21:25:39.871Z,98281.78
2023-05-02T21:28:08.180Z,98283.06
2023-05-02T21:30:36.773Z,98287.88
2023-05-02T21:33:05.374Z,98290.00
2023-05-02T21:35:34.438Z,98288.78
2023-05-02T21:38:04.138Z,98288.25
2023-05-02T21:40:32.568Z,98285.75
2023-05-02T21:43:00.839Z,98287.84
2023-05-02T21:45:29.911Z,98284.66
2023-05-02T21:47:58.700Z,98287.63
2023-05-02T21:50:27.160Z,98283.53
2023-05-02T21:52:55.534Z,98281.19
2023-05-02T21:55:25.515Z,98284.84
2023-05-02T21:57:53.784Z,98281.47
2023-05-02T22:00:25.405Z,98282.63
2023-05-02T22:02:53.864Z,98282.78
2023-05-02T22:05:22.961Z,98283.94
2023-05-02T22:07:52.330Z,98280.56
2023-05-02T22:10:25.447Z,98284.38
2023-05-02T22:12:53.832Z,98282.00
2023-05-02T22:15:22.248Z,98289.31
2023-05-02T22:17:50.790Z,98284.56
2023-05-02T22:20:19.165Z,98288.22
2023-05-02T22:22:47.561Z,98290.19
2023-05-02T22:25:15.937Z,98289.81
2023-05-02T22:27:45.847Z,98295.97
2023-05-02T22:30:17.401Z,98292.78
2023-05-02T22:32:48.425Z,98298.09
2023-05-02T22:35:18.115Z,98314.38
2023-05-02T22:37:46.427Z,98320.66
2023-05-02T22:40:18.098Z,98324.31
2023-05-02T22:42:47.823Z,98319.13
2023-05-02T22:45:16.296Z,98315.09
2023-05-02T22:47:44.642Z,98316.22
2023-05-02T22:50:16.101Z,98311.19
2023-05-02T22:52:44.549Z,98315.00
2023-05-02T22:55:12.840Z,98313.47
2023-05-02T22:57:42.303Z,98310.09
2023-05-02T23:00:16.976Z,98308.44
2023-05-02T23:02:45.525Z,98304.25
2023-05-02T23:05:23.316Z,98304.53
2023-05-02T23:07:51.709Z,98308.03
2023-05-02T23:10:20.033Z,98308.16
2023-05-02T23:12:48.518Z,98298.66
2023-05-02T23:15:21.456Z,98299.66
2023-05-02T23:17:49.827Z,98304.28
2023-05-02T23:20:20.428Z,98306.22
2023-05-02T23:22:48.734Z,98302.19
2023-05-02T23:25:17.160Z,98307.50
2023-05-02T23:27:51.254Z,98303.47
2023-05-02T23:30:21.139Z,98310.75
2023-05-02T23:32:49.737Z,98303.91
2023-05-02T23:35:21.371Z,98305.00
2023-05-02T23:37:50.530Z,98301.69
2023-05-02T23:40:19.110Z,98303.63
2023-05-02T23:42:47.650Z,98302.78
2023-05-02T23:45:16.037Z,98306.72
2023-05-02T23:47:46.584Z,98296.22
2023-05-02T23:50:18.508Z,98301.13
2023-05-02T23:52:49.601Z,98305.03
2023-05-02T23:55:18.166Z,98302.28
2023-05-02T23:57:46.500Z,98298.06
